createdAt,value
2022-10-10T00:00:32.379Z,17.28
2022-10-10T00:04:35.155Z,17.32
2022-10-10T00:08:35.472Z,17.12
2022-10-10T00:12:35.663Z,17.05
2022-10-10T00:16:36.271Z,17.05
2022-10-10T00:20:39.124Z,17.10
2022-10-10T00:24:39.363Z,17.08
2022-10-10T00:28:40.686Z,17.17
2022-10-10T00:32:41.368Z,16.90
2022-10-10T00:36:44.140Z,17.09
2022-10-10T00:40:50.177Z,17.27
2022-10-10T00:45:25.016Z,17.08
2022-10-10T00:49:32.461Z,16.83
2022-10-10T00:53:41.131Z,16.74
2022-10-10T00:57:41.467Z,16.57
2022-10-10T01:01:42.267Z,16.54
2022-10-10T01:05:44.876Z,16.68
2022-10-10T01:09:49.949Z,16.60
2022-10-10T01:14:04.028Z,16.57
2022-10-10T01:18:16.133Z,16.51
2022-10-10T01:22:32.442Z,16.52
2022-10-10T01:27:21.395Z,16.48
2022-10-10T01:31:28.462Z,16.54
2022-10-10T01:35:48.185Z,16.41
2022-10-10T01:39:59.905Z,16.38
2022-10-10T01:44:02.515Z,16.32
2022-10-10T01:48:08.925Z,16.41
2022-10-10T01:52:25.369Z,16.37
2022-10-10T01:56:43.545Z,16.28
2022-10-10T02:00:56.743Z,16.12
2022-10-10T02:05:06.011Z,16.12
2022-10-10T02:09:12.856Z,15.74
2022-10-10T02:13:15.881Z,15.83
2022-10-10T02:17:19.413Z,16.08
2022-10-10T02:21:23.216Z,16.12
2022-10-10T02:25:29.699Z,16.13
2022-10-10T02:29:36.702Z,16.13
2022-10-10T02:33:47.821Z,16.49
2022-10-10T02:37:52.660Z,16.27
2022-10-10T02:41:55.470Z,16.28
2022-10-10T02:45:55.698Z,15.95
2022-10-10T02:49:55.876Z,16.02
2022-10-10T02:53:58.594Z,16.14
2022-10-10T02:57:58.844Z,16.08
2022-10-10T03:01:59.072Z,16.05
2022-10-10T03:05:59.357Z,16.04
2022-10-10T03:10:02.256Z,16.08
2022-10-10T03:14:02.496Z,15.87
2022-10-10T03:18:02.676Z,15.91
2022-10-10T03:22:02.820Z,15.83
2022-10-10T03:26:07.283Z,15.81
2022-10-10T03:30:09.291Z,15.68
2022-10-10T03:34:09.580Z,15.65
2022-10-10T03:38:10.768Z,15.75
2022-10-10T03:42:13.479Z,15.37
2022-10-10T03:46:16.255Z,15.46
2022-10-10T03:50:17.103Z,15.50
2022-10-10T03:54:17.323Z,15.23
2022-10-10T03:58:23.655Z,15.20
2022-10-10T04:02:24.158Z,15.18
2022-10-10T04:06:24.462Z,15.19
2022-10-10T04:10:24.592Z,15.02
2022-10-10T04:14:27.682Z,15.05
2022-10-10T04:18:28.440Z,15.01
2022-10-10T04:22:28.645Z,15.13
2022-10-10T04:26:29.017Z,15.13
2022-10-10T04:30:35.836Z,15.26
2022-10-10T04:34:36.060Z,15.23
2022-10-10T04:38:36.282Z,15.17
2022-10-10T04:42:37.452Z,14.83
2022-10-10T04:46:40.326Z,15.17
2022-10-10T04:50:40.630Z,15.24
2022-10-10T04:54:41.015Z,15.20
2022-10-10T04:58:41.276Z,15.33
2022-10-10T05:02:44.040Z,15.28
2022-10-10T05:06:44.294Z,15.12
2022-10-10T05:10:44.559Z,15.14
2022-10-10T05:14:48.156Z,15.23
2022-10-10T05:18:51.500Z,15.15
2022-10-10T05:22:51.895Z,15.25
2022-10-10T05:26:52.233Z,15.22
2022-10-10T05:30:54.020Z,15.21
2022-10-10T05:34:56.743Z,15.00
2022-10-10T05:38:57.707Z,14.96
2022-10-10T05:42:58.358Z,14.91
2022-10-10T05:46:58.504Z,14.98
2022-10-10T05:51:03.362Z,14.97
2022-10-10T05:55:03.633Z,15.36
2022-10-10T05:59:03.941Z,15.44
2022-10-10T06:03:04.878Z,15.43
2022-10-10T06:07:07.771Z,15.62
2022-10-10T06:11:11.196Z,15.62
2022-10-10T06:15:13.308Z,15.66
2022-10-10T06:19:15.261Z,15.60
2022-10-10T06:23:18.329Z,15.71
2022-10-10T06:27:18.482Z,16.09
2022-10-10T06:31:19.203Z,15.86
2022-10-10T06:35:19.696Z,16.08
2022-10-10T06:39:22.564Z,16.58
2022-10-10T06:43:22.699Z,16.52
2022-10-10T06:47:22.993Z,16.63
2022-10-10T06:51:23.152Z,16.73
2022-10-10T06:55:25.991Z,16.61
2022-10-10T06:59:26.131Z,16.36
2022-10-10T07:03:26.977Z,16.38
2022-10-10T07:07:27.195Z,16.22
2022-10-10T07:11:30.278Z,16.41
2022-10-10T07:15:30.447Z,16.40
2022-10-10T07:19:30.584Z,16.78
2022-10-10T07:23:31.727Z,16.63
2022-10-10T07:27:34.476Z,16.87
2022-10-10T07:31:35.901Z,17.05
2022-10-10T07:35:36.145Z,17.08
2022-10-10T07:39:36.289Z,17.26
2022-10-10T07:43:39.989Z,17.36
2022-10-10T07:47:40.229Z,17.49
2022-10-10T07:51:41.220Z,17.76
2022-10-10T07:55:42.791Z,18.09
2022-10-10T07:59:45.856Z,18.28
2022-10-10T08:03:46.428Z,18.54
2022-10-10T08:07:46.619Z,18.93
2022-10-10T08:11:46.887Z,19.62
2022-10-10T08:15:53.881Z,19.83
2022-10-10T08:19:54.092Z,20.11
2022-10-10T08:23:54.264Z,19.71
2022-10-10T08:27:54.451Z,19.83
2022-10-10T08:31:57.260Z,19.93
2022-10-10T08:35:57.587Z,20.09
2022-10-10T08:39:57.731Z,20.34
2022-10-10T08:44:04.505Z,20.69
2022-10-10T08:48:15.141Z,20.93
2022-10-10T08:52:30.754Z,20.91
2022-10-10T08:56:36.076Z,21.22
2022-10-10T09:00:45.108Z,21.63
2022-10-10T09:04:47.870Z,21.97
2022-10-10T09:09:04.115Z,22.07
2022-10-10T09:13:16.910Z,21.41
2022-10-10T09:17:35.710Z,21.41
2022-10-10T09:21:43.666Z,22.14
2022-10-10T09:25:53.929Z,21.58
2022-10-10T09:30:04.264Z,21.98
2022-10-10T09:34:14.745Z,23.05
2022-10-10T09:38:34.622Z,22.28
2022-10-10T09:42:41.423Z,22.50
2022-10-10T09:46:42.184Z,23.43
2022-10-10T09:50:43.880Z,23.52
2022-10-10T09:54:49.330Z,23.56
2022-10-10T09:58:52.303Z,23.11
2022-10-10T10:03:05.900Z,23.70
2022-10-10T10:07:21.468Z,24.49
2022-10-10T10:11:34.506Z,25.20
2022-10-10T10:15:35.596Z,25.47
2022-10-10T10:19:39.358Z,25.25
2022-10-10T10:23:46.853Z,25.78
2022-10-10T10:27:49.694Z,26.34
2022-10-10T10:32:03.682Z,26.60
2022-10-10T10:36:21.843Z,28.41
2022-10-10T10:40:33.717Z,28.81
2022-10-10T10:44:48.297Z,28.56
2022-10-10T10:48:50.712Z,27.50
2022-10-10T10:53:02.655Z,26.22
2022-10-10T10:57:31.774Z,26.26
2022-10-10T11:01:56.226Z,26.64
2022-10-10T11:06:14.651Z,26.80
2022-10-10T11:10:31.419Z,26.46
2022-10-10T11:14:53.967Z,25.73
2022-10-10T11:19:18.654Z,26.22
2022-10-10T11:23:25.372Z,27.87
2022-10-10T11:27:32.935Z,29.41
2022-10-10T11:31:41.662Z,30.41
2022-10-10T11:35:51.283Z,30.62
2022-10-10T11:39:59.359Z,31.07
2022-10-10T11:44:08.635Z,29.37
2022-10-10T11:48:26.251Z,28.87
2022-10-10T11:52:40.257Z,28.85
2022-10-10T11:56:45.621Z,29.03
2022-10-10T12:00:54.943Z,28.37
2022-10-10T12:04:55.736Z,27.80
2022-10-10T12:09:06.563Z,27.89
2022-10-10T12:13:27.679Z,27.32
2022-10-10T12:17:32.574Z,28.39
2022-10-10T12:21:35.027Z,29.62
2022-10-10T12:25:46.335Z,30.33
2022-10-10T12:30:22.545Z,29.85
2022-10-10T12:34:45.279Z,29.70
2022-10-10T12:39:36.881Z,29.34
2022-10-10T12:43:52.127Z,29.30
2022-10-10T12:48:05.035Z,29.09
2022-10-10T12:52:11.114Z,28.10
2022-10-10T12:56:17.068Z,27.52
2022-10-10T13:00:24.996Z,27.26
2022-10-10T13:04:28.474Z,27.06
2022-10-10T13:08:31.809Z,27.11
2022-10-10T13:12:34.529Z,27.99
2022-10-10T13:16:47.667Z,28.99
2022-10-10T13:20:48.501Z,28.87
2022-10-10T13:24:53.102Z,28.13
2022-10-10T13:28:54.505Z,27.88
2022-10-10T13:32:59.460Z,27.31
2022-10-10T13:37:02.649Z,27.24
2022-10-10T13:41:05.960Z,27.29
2022-10-10T13:45:34.703Z,27.06
2022-10-10T13:49:37.477Z,26.91
2022-10-10T13:53:48.430Z,26.47
2022-10-10T13:57:50.742Z,26.53
2022-10-10T14:02:01.327Z,26.39
2022-10-10T14:06:04.495Z,26.67
2022-10-10T14:10:11.664Z,26.51
2022-10-10T14:14:24.096Z,26.32
2022-10-10T14:18:26.914Z,26.58
2022-10-10T14:22:29.764Z,26.63
2022-10-10T14:26:30.016Z,26.80
2022-10-10T14:30:30.401Z,26.81
2022-10-10T14:34:30.570Z,26.79
2022-10-10T14:38:33.708Z,26.49
2022-10-10T14:42:34.079Z,26.45
2022-10-10T14:46:34.390Z,26.45
2022-10-10T14:50:38.733Z,26.39
2022-10-10T14:54:41.701Z,26.23
2022-10-10T14:58:41.943Z,26.09
2022-10-10T15:02:45.434Z,25.89
2022-10-10T15:07:11.748Z,25.74
2022-10-10T15:11:09.166Z,26.18
2022-10-10T15:15:11.697Z,26.90
2022-10-10T15:19:12.889Z,26.75
2022-10-10T15:23:13.366Z,26.95
2022-10-10T15:27:16.514Z,28.10
2022-10-10T15:31:16.703Z,28.58
2022-10-10T15:35:20.175Z,28.52
2022-10-10T15:39:20.399Z,28.78
2022-10-10T15:43:23.684Z,28.64
2022-10-10T15:47:24.608Z,28.32
2022-10-10T15:51:24.850Z,28.38
2022-10-10T15:55:24.997Z,27.96
2022-10-10T15:59:27.821Z,27.34
2022-10-10T16:03:28.120Z,27.29
2022-10-10T16:07:30.408Z,26.67
2022-10-10T16:11:31.697Z,26.14
2022-10-10T16:15:34.470Z,25.79
2022-10-10T16:19:34.790Z,25.32
2022-10-10T16:23:35.729Z,24.96
2022-10-10T16:27:38.944Z,24.54
2022-10-10T16:31:43.109Z,24.24
2022-10-10T16:35:43.235Z,23.99
2022-10-10T16:39:43.356Z,23.60
2022-10-10T16:43:46.502Z,23.20
2022-10-10T16:47:49.347Z,22.93
2022-10-10T16:51:49.684Z,22.71
2022-10-10T16:55:50.092Z,22.54
2022-10-10T16:59:50.350Z,22.42
2022-10-10T17:03:54.405Z,22.16
2022-10-10T17:07:54.769Z,22.00
2022-10-10T17:11:54.988Z,21.86
2022-10-10T17:15:55.497Z,21.71
2022-10-10T17:19:58.328Z,21.50
2022-10-10T17:23:58.993Z,21.24
2022-10-10T17:27:59.463Z,21.12
2022-10-10T17:32:04.069Z,21.02
2022-10-10T17:36:15.648Z,20.98
2022-10-10T17:40:16.679Z,21.21
2022-10-10T17:44:16.920Z,21.05
2022-10-10T17:48:17.183Z,20.90
2022-10-10T17:52:21.528Z,21.03
2022-10-10T17:56:25.083Z,20.95
2022-10-10T18:00:25.537Z,20.88
2022-10-10T18:04:25.704Z,20.74
2022-10-10T18:08:28.432Z,20.62
2022-10-10T18:12:28.670Z,20.56
2022-10-10T18:16:32.416Z,20.44
2022-10-10T18:20:32.619Z,20.30
2022-10-10T18:24:35.434Z,20.18
2022-10-10T18:28:39.097Z,20.09
2022-10-10T18:32:39.305Z,19.97
2022-10-10T18:36:42.531Z,19.44
2022-10-10T18:40:45.441Z,19.87
2022-10-10T18:44:45.916Z,19.47
2022-10-10T18:48:51.347Z,19.33
2022-10-10T18:52:56.641Z,19.37
2022-10-10T18:56:59.566Z,19.34
2022-10-10T19:01:03.096Z,19.36
2022-10-10T19:05:03.615Z,19.08
2022-10-10T19:09:05.510Z,18.82
2022-10-10T19:13:08.253Z,19.06
2022-10-10T19:17:09.121Z,19.09
2022-10-10T19:21:10.112Z,18.89
2022-10-10T19:25:40.869Z,18.51
2022-10-10T19:30:15.404Z,18.44
2022-10-10T19:34:28.463Z,18.61
2022-10-10T19:38:46.477Z,17.25
2022-10-10T19:43:08.513Z,17.78
2022-10-10T19:47:11.464Z,17.46
2022-10-10T19:51:15.265Z,17.48
2022-10-10T19:55:18.353Z,18.01
2022-10-10T19:59:18.547Z,17.99
2022-10-10T20:03:22.865Z,17.92
2022-10-10T20:07:23.039Z,17.96
2022-10-10T20:11:23.694Z,18.05
2022-10-10T20:15:23.860Z,18.10
2022-10-10T20:19:27.643Z,17.83
2022-10-10T20:23:29.235Z,17.98
2022-10-10T20:27:31.464Z,17.93
2022-10-10T20:31:35.684Z,18.04
2022-10-10T20:35:39.928Z,17.91
2022-10-10T20:39:40.128Z,17.93
2022-10-10T20:43:42.166Z,17.82
2022-10-10T20:47:42.295Z,17.79
2022-10-10T20:51:48.768Z,17.75
2022-10-10T20:55:48.919Z,17.69
2022-10-10T20:59:49.121Z,17.63
2022-10-10T21:03:50.609Z,17.55
2022-10-10T21:07:53.403Z,17.60
2022-10-10T21:11:54.309Z,17.54
2022-10-10T21:15:54.612Z,17.45
2022-10-10T21:19:55.096Z,17.17
2022-10-10T21:23:58.637Z,17.39
2022-10-10T21:27:58.761Z,17.22
2022-10-10T21:31:59.009Z,17.16
2022-10-10T21:36:00.436Z,17.04
2022-10-10T21:40:03.174Z,17.06
2022-10-10T21:44:03.736Z,17.01
2022-10-10T21:48:03.918Z,16.90
2022-10-10T21:52:04.343Z,16.77
2022-10-10T21:56:11.275Z,16.76
2022-10-10T22:00:14.130Z,16.59
2022-10-10T22:04:14.390Z,16.41
2022-10-10T22:08:14.834Z,16.62
2022-10-10T22:12:17.661Z,16.65
2022-10-10T22:16:17.925Z,16.59
2022-10-10T22:20:18.123Z,16.58
2022-10-10T22:24:18.726Z,16.60
2022-10-10T22:28:22.026Z,16.51
2022-10-10T22:32:22.215Z,16.56
2022-10-10T22:36:22.432Z,16.72
2022-10-10T22:40:23.432Z,16.71
2022-10-10T22:44:26.695Z,16.91
2022-10-10T22:48:27.518Z,17.06
2022-10-10T22:52:28.524Z,17.24
2022-10-10T22:56:29.099Z,17.25
2022-10-10T23:00:32.001Z,17.42
2022-10-10T23:04:32.192Z,17.47
2022-10-10T23:08:32.457Z,17.75
2022-10-10T23:12:32.679Z,17.66
2022-10-10T23:16:39.683Z,17.75
2022-10-10T23:20:40.781Z,18.12
2022-10-10T23:24:41.383Z,18.00
2022-10-10T23:28:44.822Z,18.04
2022-10-10T23:32:48.213Z,18.21
2022-10-10T23:36:48.368Z,18.23
2022-10-10T23:40:48.491Z,18.20
2022-10-10T23:44:48.707Z,18.19
2022-10-10T23:48:51.590Z,18.10
2022-10-10T23:52:51.717Z,18.11
2022-10-10T23:56:51.860Z,18.16
